Time;durP1;ratioP1;P1;durP2;ratioP2;P2;SDS_P1;SDS_P2;PMS_P1;PMS_P2;Temp;Humidity;BMP_temperature;BMP_pressure;BME280_temperature;BME280_humidity;BME280_pressure;Samples;Min_cycle;Max_cycle;Signal;HPM_P1;HPM_P2
2022/01/16 00:01:15;;;;;;;;;63.67;51.33;;;;;2.60;67.67;101965.97;5129131;27;45414;-76
2022/01/16 00:06:42;;;;;;;;;72.67;55.00;;;;;2.68;67.22;101982.94;5035237;28;45500;-77
2022/01/16 00:09:07;;;;;;;;;66.67;50.00;;;;;2.66;67.45;101962.84;5026922;28;45568;-77
2022/01/16 00:11:35;;;;;;;;;68.00;51.00;;;;;2.56;67.44;101938.91;5023357;28;45233;-77
2022/01/16 00:14:02;;;;;;;;;75.67;55.33;;;;;2.62;67.44;101940.97;5015701;28;45614;-76
2022/01/16 00:16:28;;;;;;;;;70.00;55.33;;;;;2.58;67.58;101949.38;5015391;28;45409;-76
2022/01/16 00:18:53;;;;;;;;;69.00;54.00;;;;;2.38;67.77;101935.22;5015543;28;45359;-76
2022/01/16 00:21:21;;;;;;;;;69.33;54.00;;;;;2.68;67.41;101966.44;5015097;28;45460;-77
2022/01/16 00:23:47;;;;;;;;;68.00;54.00;;;;;2.63;67.57;101953.16;5015657;28;46942;-77
2022/01/16 00:26:14;;;;;;;;;79.33;53.67;;;;;2.72;67.88;101971.94;5015281;28;45280;-77
2022/01/16 00:28:39;;;;;;;;;76.00;55.67;;;;;2.67;67.12;101972.44;4998399;28;45435;-76
2022/01/16 00:31:05;;;;;;;;;63.00;51.67;;;;;2.58;67.20;101980.59;5015180;28;45362;-76
2022/01/16 00:33:30;;;;;;;;;61.33;49.33;;;;;2.60;67.69;102007.59;5015360;28;46165;-77
2022/01/16 00:35:56;;;;;;;;;69.67;56.00;;;;;2.49;67.46;101980.06;5014954;28;45529;-76
2022/01/16 00:38:21;;;;;;;;;66.33;51.00;;;;;2.65;67.25;102015.69;5015425;28;45747;-76
2022/01/16 00:40:47;;;;;;;;;65.67;50.00;;;;;2.65;67.45;101979.28;5015181;28;45303;-76
2022/01/16 00:43:13;;;;;;;;;68.67;54.67;;;;;2.54;67.70;101942.22;5107242;27;46761;-77
2022/01/16 00:45:39;;;;;;;;;63.00;48.67;;;;;2.58;67.80;101965.00;5118822;27;45427;-77
2022/01/16 00:48:06;;;;;;;;;68.33;54.00;;;;;2.43;67.38;101948.50;5118866;27;45424;-77
2022/01/16 00:50:33;;;;;;;;;70.67;54.00;;;;;2.58;67.54;101984.09;5118572;27;45223;-77
2022/01/16 00:52:59;;;;;;;;;70.67;53.00;;;;;2.56;67.41;101984.81;5118454;27;45354;-77
2022/01/16 00:55:24;;;;;;;;;61.33;50.33;;;;;2.62;67.67;101993.00;5118682;27;45303;-77
2022/01/16 00:57:49;;;;;;;;;69.33;52.67;;;;;2.64;67.05;101996.59;5118790;27;45541;-76
2022/01/16 01:00:16;;;;;;;;;68.33;54.00;;;;;2.56;66.75;101971.81;5118561;27;45322;-77
2022/01/16 01:02:41;;;;;;;;;64.00;50.00;;;;;2.57;66.80;102038.63;5116685;27;47165;-77
2022/01/16 01:05:08;;;;;;;;;59.00;45.00;;;;;2.53;66.48;102005.47;5100116;27;45344;-76
2022/01/16 01:07:35;;;;;;;;;65.00;52.33;;;;;2.57;66.24;102042.13;5126072;27;45308;-76
2022/01/16 01:10:01;;;;;;;;;57.33;48.00;;;;;2.60;67.09;102033.59;5139270;27;45348;-76
2022/01/16 01:12:40;;;;;;;;;65.33;52.00;;;;;2.53;66.66;102049.69;5137147;27;47204;-76
2022/01/16 01:15:08;;;;;;;;;59.67;48.00;;;;;2.51;66.58;102031.38;5138552;27;45322;-77
2022/01/16 01:17:43;;;;;;;;;76.67;52.00;;;;;2.52;66.21;102024.47;5138927;27;45308;-77
2022/01/16 01:20:10;;;;;;;;;66.33;50.67;;;;;2.48;66.05;102031.19;5138934;27;45309;-76
2022/01/16 01:22:35;;;;;;;;;62.00;50.00;;;;;2.48;66.17;102005.16;5138979;27;45337;-76
2022/01/16 01:25:04;;;;;;;;;62.67;48.33;;;;;2.44;67.07;101959.00;5138166;27;45379;-77
2022/01/16 01:27:31;;;;;;;;;63.33;49.33;;;;;2.34;66.92;101948.84;5120564;27;45323;-77
2022/01/16 01:30:07;;;;;;;;;65.00;47.00;;;;;2.34;66.43;101933.25;5138934;27;45380;-77
2022/01/16 01:32:35;;;;;;;;;68.33;50.67;;;;;2.34;67.04;101920.25;5121753;27;47231;-77
2022/01/16 01:35:01;;;;;;;;;63.00;50.33;;;;;2.31;66.90;101932.16;5118041;27;45384;-76
2022/01/16 01:37:26;;;;;;;;;66.33;49.67;;;;;2.29;67.68;101956.34;5118228;27;45222;-76
2022/01/16 01:39:51;;;;;;;;;66.33;52.67;;;;;2.25;67.38;101948.28;5120250;27;45236;-75
2022/01/16 01:42:17;;;;;;;;;68.00;47.33;;;;;2.41;66.89;101997.78;5121469;27;46219;-76
2022/01/16 01:52:56;;;;;;;;;70.67;55.67;;;;;2.29;67.48;101992.75;5121424;27;45264;-75
2022/01/16 01:55:24;;;;;;;;;70.00;56.67;;;;;2.45;66.99;102022.31;5121154;27;45240;-75
2022/01/16 01:57:49;;;;;;;;;68.00;51.67;;;;;2.55;67.52;102025.53;5121354;27;45173;-76
2022/01/16 02:00:18;;;;;;;;;74.33;53.00;;;;;2.56;67.85;102037.75;5121530;27;45348;-76
2022/01/16 02:05:29;;;;;;;;;65.33;51.67;;;;;2.49;67.63;102056.38;5100435;27;45381;-76
2022/01/16 02:07:54;;;;;;;;;67.33;49.67;;;;;2.56;67.71;102065.47;5113183;27;45342;-76
2022/01/16 02:10:20;;;;;;;;;68.67;48.67;;;;;2.50;67.66;102076.38;5121650;27;45293;-76
2022/01/16 02:12:49;;;;;;;;;68.00;54.33;;;;;2.48;68.11;102074.50;5120875;27;46624;-76
2022/01/16 02:15:37;;;;;;;;;68.00;52.67;;;;;2.59;68.05;102083.84;5118230;27;45469;-77
2022/01/16 02:31:41;;;;;;;;;77.25;55.00;;;;;2.71;68.18;102082.00;5100237;27;45562;-77
2022/01/16 02:36:58;;;;;;;;;70.33;55.67;;;;;2.55;68.75;102051.56;5110234;27;45480;-77
2022/01/16 02:39:27;;;;;;;;;63.00;49.00;;;;;2.70;68.95;102082.81;5109087;27;45549;-76
2022/01/16 02:41:54;;;;;;;;;67.67;52.33;;;;;2.63;68.74;102059.84;5098800;27;45424;-76
2022/01/16 02:44:29;;;;;;;;;65.33;49.00;;;;;2.58;68.64;102045.63;5115062;27;46375;-75
2022/01/16 02:46:55;;;;;;;;;65.50;53.25;;;;;2.66;68.79;102052.19;5120499;27;45242;-76
2022/01/16 02:49:25;;;;;;;;;70.00;50.67;;;;;2.66;69.06;102057.41;5118317;27;45289;-76
2022/01/16 02:51:53;;;;;;;;;66.33;52.33;;;;;2.64;68.99;102042.50;5107131;27;45361;-76
2022/01/16 02:54:19;;;;;;;;;67.00;55.00;;;;;2.69;69.40;102052.38;5105079;27;46430;-76
2022/01/16 02:56:45;;;;;;;;;61.00;50.67;;;;;2.56;69.59;102029.03;5108376;27;45547;-76
2022/01/16 02:59:12;;;;;;;;;67.33;51.33;;;;;2.65;69.32;102029.59;5107398;27;45586;-77
2022/01/16 03:01:38;;;;;;;;;65.00;49.67;;;;;2.71;69.48;102034.28;5115187;27;45391;-77
2022/01/16 03:04:04;;;;;;;;;62.67;51.33;;;;;2.72;68.65;102028.28;5124534;27;46626;-78
2022/01/16 03:06:30;;;;;;;;;68.33;52.00;;;;;2.57;69.08;102021.31;5127306;27;45818;-77
2022/01/16 03:08:55;;;;;;;;;68.00;52.33;;;;;2.38;69.13;102000.22;5126583;27;45692;-78
2022/01/16 03:11:27;;;;;;;;;69.67;55.00;;;;;2.46;69.23;102019.78;5130688;27;45418;-77
2022/01/16 03:13:53;;;;;;;;;68.33;56.67;;;;;2.48;69.96;102030.28;5111248;27;46260;-78
2022/01/16 03:16:21;;;;;;;;;65.00;55.33;;;;;2.43;69.58;102010.91;5125169;27;45295;-77
2022/01/16 03:24:17;;;;;;;;;67.33;55.33;;;;;2.51;69.99;102022.66;5130306;27;45805;-78
2022/01/16 03:26:42;;;;;;;;;73.00;57.33;;;;;2.52;69.96;102020.16;5107933;27;46668;-77
2022/01/16 03:29:08;;;;;;;;;67.33;53.67;;;;;2.52;69.85;102022.78;5130364;27;45538;-78
2022/01/16 03:31:34;;;;;;;;;63.67;51.67;;;;;2.51;69.91;102022.66;5126505;27;45824;-77
2022/01/16 03:34:00;;;;;;;;;64.00;49.67;;;;;2.56;69.63;102032.53;5125199;27;46386;-77
2022/01/16 03:36:25;;;;;;;;;69.00;53.00;;;;;2.40;69.93;101993.41;5127981;27;45286;-78
2022/01/16 03:38:51;;;;;;;;;71.67;53.67;;;;;2.47;69.35;101999.88;5125000;27;45485;-78
2022/01/16 03:41:17;;;;;;;;;73.00;55.00;;;;;2.61;69.85;102035.44;5134513;27;45410;-77
2022/01/16 03:43:42;;;;;;;;;62.67;52.33;;;;;2.33;69.78;101998.13;5129361;27;45595;-77
2022/01/16 03:46:07;;;;;;;;;70.67;53.00;;;;;2.55;69.58;102032.44;5126326;27;46929;-78
2022/01/16 03:48:33;;;;;;;;;72.00;55.67;;;;;2.56;69.71;102035.13;5124130;27;45530;-78
2022/01/16 03:50:58;;;;;;;;;70.67;53.67;;;;;2.42;69.20;102009.09;5127044;27;45476;-77
2022/01/16 03:53:24;;;;;;;;;60.33;46.33;;;;;2.52;69.73;102016.69;5130636;27;46287;-77
2022/01/16 03:55:50;;;;;;;;;68.67;55.33;;;;;2.54;69.31;102015.06;5128428;27;46702;-78
2022/01/16 03:58:16;;;;;;;;;76.33;58.33;;;;;2.46;69.66;102022.38;5127165;27;45468;-78
2022/01/16 04:00:41;;;;;;;;;63.67;53.00;;;;;2.20;69.75;101992.19;5128753;27;45474;-77
2022/01/16 04:03:07;;;;;;;;;66.33;49.67;;;;;2.22;70.01;101990.56;5126290;27;46501;-77
2022/01/16 04:05:33;;;;;;;;;67.67;53.00;;;;;2.23;69.52;102026.19;5127154;27;45415;-78
2022/01/16 04:07:59;;;;;;;;;57.00;46.67;;;;;2.09;69.35;102003.66;5107590;27;45473;-78
2022/01/16 04:10:25;;;;;;;;;61.33;49.67;;;;;2.23;69.71;102036.59;5125397;27;45256;-78
2022/01/16 04:12:50;;;;;;;;;71.67;53.67;;;;;2.10;69.90;102031.44;5128894;27;45462;-77
2022/01/16 04:17:45;;;;;;;;;65.00;53.00;;;;;1.84;70.49;102014.19;5129850;27;45614;-77
2022/01/16 04:20:15;;;;;;;;;57.33;45.00;;;;;2.00;70.08;102050.75;5126353;27;45418;-77
2022/01/16 04:22:45;;;;;;;;;77.33;55.00;;;;;2.00;70.57;102068.03;5126690;27;45500;-77
2022/01/16 04:25:11;;;;;;;;;69.00;57.33;;;;;1.97;70.72;102076.56;5131938;27;45414;-78
2022/01/16 04:27:36;;;;;;;;;71.67;52.67;;;;;1.82;71.37;102061.69;5129156;27;45434;-78
2022/01/16 04:30:05;;;;;;;;;59.33;50.33;;;;;2.00;70.67;102081.94;5133186;27;45392;-77
2022/01/16 04:32:31;;;;;;;;;82.25;58.75;;;;;1.94;71.46;102071.13;5104856;27;46439;-78
2022/01/16 04:34:56;;;;;;;;;75.00;56.00;;;;;2.02;70.89;102091.53;5140017;27;45334;-78
2022/01/16 04:37:21;;;;;;;;;64.33;50.67;;;;;1.82;71.31;102067.78;5139886;27;45298;-78
2022/01/16 04:39:52;;;;;;;;;75.00;54.67;;;;;1.86;70.75;102074.06;5139824;27;45414;-78
2022/01/16 04:45:02;;;;;;;;;68.00;56.00;;;;;2.09;71.40;102101.53;5139500;27;45171;-75
2022/01/16 04:47:29;;;;;;;;;64.67;50.00;;;;;1.87;71.43;102057.69;5139809;27;45291;-77
2022/01/16 04:49:54;;;;;;;;;63.75;51.00;;;;;2.01;70.80;102075.03;5121100;27;45510;-78
2022/01/16 04:52:20;;;;;;;;;73.25;53.00;;;;;1.93;71.83;102082.34;5139426;27;45472;-78
2022/01/16 04:54:45;;;;;;;;;66.33;53.67;;;;;2.07;71.34;102091.03;5139532;27;45355;-78
2022/01/16 04:57:13;;;;;;;;;69.75;55.25;;;;;2.00;71.90;102070.66;5138664;27;45335;-77
2022/01/16 04:59:39;;;;;;;;;61.00;50.25;;;;;2.07;71.75;102087.53;5139653;27;45323;-78
2022/01/16 05:02:04;;;;;;;;;63.33;53.00;;;;;1.93;71.92;102077.16;5138737;27;46159;-78
2022/01/16 05:04:30;;;;;;;;;71.00;55.00;;;;;2.08;71.95;102097.13;5138637;27;45236;-78
2022/01/16 05:06:55;;;;;;;;;64.67;50.67;;;;;2.16;71.12;102096.81;5139464;27;45341;-77
2022/01/16 05:09:20;;;;;;;;;55.67;44.00;;;;;2.18;71.40;102097.78;5139864;27;45281;-77
2022/01/16 05:11:51;;;;;;;;;63.75;49.50;;;;;2.22;71.79;102102.38;5139176;27;46596;-78
2022/01/16 05:17:00;;;;;;;;;71.00;53.75;;;;;2.30;71.39;102102.84;5144308;27;45481;-76
2022/01/16 05:19:26;;;;;;;;;70.75;56.00;;;;;2.16;71.93;102091.59;5166014;27;44732;-77
2022/01/16 05:21:51;;;;;;;;;69.00;53.25;;;;;2.17;71.88;102092.50;5164627;27;46417;-79
2022/01/16 05:24:16;;;;;;;;;66.00;54.25;;;;;2.10;72.88;102078.22;5144385;27;45331;-77
2022/01/16 05:26:43;;;;;;;;;65.67;53.33;;;;;2.32;72.72;102119.44;5143312;27;45864;-78
2022/01/16 05:29:11;;;;;;;;;68.75;52.75;;;;;2.19;72.91;102098.69;5143813;27;45352;-78
2022/01/16 05:31:37;;;;;;;;;66.67;52.00;;;;;2.44;71.97;102129.75;5124476;27;47637;-78
2022/01/16 05:34:02;;;;;;;;;64.33;51.67;;;;;2.46;72.59;102144.63;5143358;27;45256;-77
2022/01/16 05:36:28;;;;;;;;;67.67;50.33;;;;;2.41;72.18;102138.22;5142956;27;45942;-78
2022/01/16 05:38:54;;;;;;;;;47.33;37.67;;;;;2.44;72.05;102146.25;5137737;27;45496;-77
2022/01/16 05:41:21;;;;;;;;;66.67;49.33;;;;;2.39;71.86;102157.13;5121744;27;46494;-77
2022/01/16 05:43:47;;;;;;;;;68.67;45.67;;;;;2.36;72.64;102151.75;5121767;27;45382;-78
2022/01/16 05:46:14;;;;;;;;;67.33;53.67;;;;;2.30;72.89;102144.47;5122088;27;45532;-78
2022/01/16 05:48:41;;;;;;;;;66.67;48.33;;;;;2.06;72.55;102109.13;5121919;27;45481;-78
2022/01/16 05:51:08;;;;;;;;;66.00;50.33;;;;;2.18;73.30;102120.28;5108723;27;46913;-78
2022/01/16 05:53:34;;;;;;;;;61.00;49.67;;;;;2.13;73.18;102135.59;5142543;27;45335;-76
2022/01/16 05:55:59;;;;;;;;;70.00;54.67;;;;;1.93;74.25;102125.63;5142698;27;45143;-78
2022/01/16 05:58:25;;;;;;;;;57.00;45.67;;;;;2.14;72.66;102150.41;5125996;27;45347;-78
2022/01/16 06:00:52;;;;;;;;;63.33;50.00;;;;;2.07;74.06;102145.59;5121472;27;46961;-78
2022/01/16 06:03:19;;;;;;;;;47.00;42.67;;;;;2.04;73.41;102131.50;5102187;27;45445;-78
2022/01/16 06:05:44;;;;;;;;;69.33;47.33;;;;;2.19;73.31;102153.28;5100417;27;45419;-78
2022/01/16 06:08:12;;;;;;;;;48.67;40.00;;;;;2.10;73.29;102124.09;5101231;27;45262;-77
2022/01/16 06:10:38;;;;;;;;;70.33;53.67;;;;;1.98;74.37;102126.81;5100768;27;45483;-77
2022/01/16 06:13:05;;;;;;;;;61.33;47.00;;;;;2.00;74.48;102125.22;5082397;27;45340;-78
2022/01/16 06:15:30;;;;;;;;;68.33;49.33;;;;;2.02;74.57;102141.81;5100934;27;45289;-78
2022/01/16 06:17:56;;;;;;;;;56.33;46.33;;;;;2.07;74.60;102175.91;5100903;27;45330;-78
2022/01/16 06:20:22;;;;;;;;;66.33;51.33;;;;;2.10;74.98;102182.19;5099914;27;46516;-78
2022/01/16 06:22:47;;;;;;;;;48.67;42.33;;;;;1.98;74.43;102166.72;5100867;27;45304;-78
2022/01/16 06:25:14;;;;;;;;;52.00;42.00;;;;;2.10;74.57;102183.88;5100279;27;45401;-78
2022/01/16 06:27:40;;;;;;;;;66.00;51.00;;;;;2.08;74.32;102175.09;5100765;27;45313;-78
2022/01/16 06:30:08;;;;;;;;;59.67;40.33;;;;;2.09;74.86;102172.59;5100167;27;46453;-79
2022/01/16 06:32:33;;;;;;;;;49.00;38.67;;;;;2.07;74.79;102179.41;5100426;27;45211;-78
2022/01/16 06:35:04;;;;;;;;;49.67;45.00;;;;;2.04;75.35;102178.28;5102954;27;45290;-78
2022/01/16 06:37:30;;;;;;;;;60.33;45.00;;;;;2.10;74.85;102178.69;5101222;27;45417;-78
2022/01/16 06:39:56;;;;;;;;;39.33;34.33;;;;;2.04;75.08;102170.47;5083010;27;45472;-78
2022/01/16 06:42:21;;;;;;;;;42.67;38.00;;;;;2.06;75.39;102188.00;5098987;27;45263;-78
2022/01/16 06:44:47;;;;;;;;;46.67;36.33;;;;;2.07;75.18;102197.59;5109320;27;45230;-77
2022/01/16 06:47:12;;;;;;;;;40.33;33.33;;;;;2.09;75.09;102198.59;5121020;27;45185;-78
2022/01/16 06:49:38;;;;;;;;;48.00;36.00;;;;;2.11;75.47;102194.38;5120586;27;46418;-78
2022/01/16 06:52:04;;;;;;;;;35.00;30.00;;;;;2.10;74.82;102179.59;5120208;27;45485;-77
2022/01/16 06:54:30;;;;;;;;;43.00;36.67;;;;;2.07;74.17;102175.91;5120601;27;45156;-78
2022/01/16 06:56:55;;;;;;;;;47.67;39.00;;;;;1.89;75.03;102157.41;5120829;27;45313;-77
2022/01/16 06:59:21;;;;;;;;;57.67;41.33;;;;;1.77;74.86;102162.72;5120479;27;45934;-77
2022/01/16 07:01:46;;;;;;;;;46.33;42.67;;;;;2.08;75.66;102224.47;5126685;27;45443;-78
2022/01/16 07:04:11;;;;;;;;;52.00;41.67;;;;;1.92;75.38;102200.06;5139054;27;45461;-76
2022/01/16 07:06:37;;;;;;;;;38.00;32.67;;;;;1.94;75.20;102207.97;5126546;27;45723;-78
2022/01/16 07:09:03;;;;;;;;;44.00;34.67;;;;;2.04;75.62;102240.66;5130806;27;46162;-79
2022/01/16 07:11:28;;;;;;;;;51.33;41.67;;;;;2.00;76.22;102242.16;5131660;27;45450;-78
2022/01/16 07:13:53;;;;;;;;;38.33;34.00;;;;;1.97;75.82;102249.78;5141423;27;45287;-78
2022/01/16 07:16:19;;;;;;;;;36.67;36.67;;;;;1.82;75.92;102225.34;5141497;27;45249;-79
2022/01/16 07:18:44;;;;;;;;;39.67;34.33;;;;;1.95;75.36;102248.75;5138405;27;45501;-76
2022/01/16 07:21:13;;;;;;;;;42.33;29.67;;;;;1.90;76.36;102235.47;5129256;27;45410;-76
2022/01/16 07:23:49;;;;;;;;;38.67;34.33;;;;;1.58;76.64;102178.78;5125986;27;45540;-76
2022/01/16 07:26:16;;;;;;;;;31.67;24.67;;;;;1.80;76.62;102213.97;5126345;27;45566;-76
2022/01/16 07:28:41;;;;;;;;;41.00;33.33;;;;;1.75;76.78;102197.16;5130846;27;46704;-76
2022/01/16 07:31:07;;;;;;;;;43.33;36.00;;;;;1.91;76.23;102233.75;5130419;27;45435;-76
2022/01/16 07:33:32;;;;;;;;;37.00;29.67;;;;;1.84;76.69;102224.66;5138888;27;45307;-77
2022/01/16 07:35:58;;;;;;;;;31.67;21.67;;;;;1.91;76.61;102238.97;5140579;27;45298;-77
2022/01/16 07:38:23;;;;;;;;;40.00;31.67;;;;;1.83;76.73;102225.44;5139876;27;46280;-77
2022/01/16 07:40:49;;;;;;;;;35.33;32.67;;;;;1.99;76.41;102277.66;5140822;27;45406;-77
2022/01/16 07:43:14;;;;;;;;;43.00;31.33;;;;;1.97;76.33;102267.97;5140685;27;45315;-77
2022/01/16 07:45:40;;;;;;;;;47.33;41.00;;;;;2.08;75.94;102268.66;5140910;27;45454;-77
2022/01/16 07:48:07;;;;;;;;;38.00;29.33;;;;;2.07;75.82;102254.78;5140545;27;46606;-77
2022/01/16 07:50:33;;;;;;;;;35.67;30.00;;;;;2.10;76.04;102252.38;5137786;27;45306;-75
2022/01/16 07:52:58;;;;;;;;;39.00;33.33;;;;;2.02;76.35;102240.56;5128535;27;45434;-77
2022/01/16 07:55:26;;;;;;;;;39.67;32.00;;;;;2.11;75.97;102245.47;5141042;27;45311;-77
2022/01/16 07:57:55;;;;;;;;;34.00;30.67;;;;;2.11;76.55;102235.97;5140300;27;45477;-77
2022/01/16 08:00:21;;;;;;;;;42.00;31.67;;;;;2.21;76.37;102246.16;5139567;27;45341;-77
2022/01/16 08:02:48;;;;;;;;;43.00;36.67;;;;;2.03;76.15;102192.06;5140091;27;45300;-77
2022/01/16 08:05:15;;;;;;;;;41.67;33.67;;;;;2.20;76.27;102220.97;5140694;27;45384;-77
2022/01/16 08:07:41;;;;;;;;;41.67;34.67;;;;;2.31;76.02;102249.34;5140124;27;45759;-76
2022/01/16 08:10:07;;;;;;;;;36.33;28.67;;;;;2.36;75.39;102259.28;5140243;27;45339;-77
2022/01/16 08:12:33;;;;;;;;;45.33;40.67;;;;;2.03;75.45;102199.88;5140302;27;45429;-78
2022/01/16 08:14:59;;;;;;;;;38.00;34.67;;;;;2.27;76.65;102238.78;5121909;27;45567;-76
2022/01/16 08:17:24;;;;;;;;;30.00;19.33;;;;;2.23;76.81;102239.38;5139299;27;45381;-77
2022/01/16 08:19:49;;;;;;;;;45.00;35.67;;;;;2.28;76.77;102258.78;5140027;27;45462;-75
2022/01/16 08:22:15;;;;;;;;;47.33;36.00;;;;;2.10;77.00;102222.88;5127076;27;46152;-77
2022/01/16 08:24:40;;;;;;;;;32.33;26.33;;;;;2.30;76.84;102248.47;5127980;27;45524;-76
2022/01/16 08:27:06;;;;;;;;;42.33;34.33;;;;;2.19;76.50;102221.78;5131418;27;46443;-76
2022/01/16 08:29:31;;;;;;;;;26.67;23.00;;;;;2.40;76.88;102253.44;5125048;27;45389;-78
2022/01/16 08:31:57;;;;;;;;;47.67;30.33;;;;;2.25;75.76;102222.19;5130521;27;45244;-78
2022/01/16 08:34:22;;;;;;;;;33.00;26.67;;;;;2.46;76.26;102255.56;5123446;27;45461;-76
2022/01/16 08:36:47;;;;;;;;;44.33;28.33;;;;;2.42;75.74;102240.53;5128008;27;45323;-75
2022/01/16 08:39:14;;;;;;;;;37.00;30.00;;;;;2.54;76.35;102263.06;5134738;27;45366;-76
2022/01/16 08:41:40;;;;;;;;;49.67;34.67;;;;;2.52;76.82;102266.38;5124335;27;45317;-75
2022/01/16 08:44:06;;;;;;;;;22.00;18.67;;;;;2.52;76.54;102253.38;5123747;27;45590;-76
2022/01/16 08:46:33;;;;;;;;;37.67;32.00;;;;;2.36;76.61;102211.56;5139867;27;45457;-76
2022/01/16 08:48:58;;;;;;;;;34.33;33.33;;;;;2.72;76.08;102258.13;5139287;27;45369;-74
2022/01/16 08:51:24;;;;;;;;;28.67;23.00;;;;;2.69;75.39;102255.31;5138092;27;45354;-74
2022/01/16 08:53:49;;;;;;;;;41.33;37.67;;;;;2.66;76.15;102249.03;5129906;27;45498;-77
2022/01/16 08:56:15;;;;;;;;;46.67;33.00;;;;;2.82;75.69;102275.22;5127548;27;46567;-74
2022/01/16 08:58:41;;;;;;;;;30.00;24.33;;;;;2.83;76.22;102277.03;5135850;27;45443;-76
2022/01/16 09:01:06;;;;;;;;;43.33;35.33;;;;;2.93;75.94;102281.09;5127752;27;45226;-76
2022/01/16 09:03:33;;;;;;;;;37.33;34.00;;;;;2.86;75.37;102265.09;5118499;27;45349;-77
2022/01/16 09:05:58;;;;;;;;;41.67;32.00;;;;;2.74;76.13;102260.81;5118263;27;45499;-77
2022/01/16 09:08:24;;;;;;;;;38.00;33.33;;;;;2.78;76.72;102257.59;5118013;27;45453;-75
2022/01/16 09:10:49;;;;;;;;;39.67;33.00;;;;;2.89;76.23;102279.13;5119852;27;45288;-77
2022/01/16 09:13:17;;;;;;;;;33.00;27.00;;;;;2.82;75.96;102263.09;5139266;27;45530;-77
2022/01/16 09:15:45;;;;;;;;;44.67;33.67;;;;;3.09;75.87;102303.00;5125209;27;46229;-75
2022/01/16 09:18:11;;;;;;;;;39.00;33.00;;;;;3.19;75.69;102312.28;5136608;27;45445;-75
2022/01/16 09:20:38;;;;;;;;;39.00;28.00;;;;;3.32;74.72;102293.09;5133310;27;45415;-73
2022/01/16 09:23:04;;;;;;;;;30.67;22.67;;;;;3.19;74.69;102251.47;5130710;27;45331;-75
2022/01/16 09:25:30;;;;;;;;;35.00;31.33;;;;;3.71;74.07;102300.72;5137207;27;45477;-76
2022/01/16 09:27:56;;;;;;;;;41.00;34.33;;;;;3.67;73.51;102292.63;5136933;27;45590;-76
2022/01/16 09:30:23;;;;;;;;;41.67;36.33;;;;;3.90;73.26;102307.91;5118836;27;45478;-77
2022/01/16 09:32:49;;;;;;;;;36.33;35.67;;;;;3.43;73.16;102220.00;5137751;27;45467;-76
2022/01/16 09:35:15;;;;;;;;;41.67;34.00;;;;;4.00;72.46;102314.56;5129912;27;46630;-76
2022/01/16 09:37:41;;;;;;;;;32.67;32.67;;;;;3.52;73.05;102245.69;5118967;27;45562;-77
2022/01/16 09:40:14;;;;;;;;;32.33;29.67;;;;;3.77;73.09;102313.22;5136928;27;45369;-76
2022/01/16 09:42:40;;;;;;;;;41.00;36.00;;;;;3.51;73.41;102233.47;5136930;27;45427;-77
2022/01/16 09:45:09;;;;;;;;;45.00;36.67;;;;;4.82;71.36;102321.94;5136702;27;46604;-76
2022/01/16 09:47:36;;;;;;;;;40.00;35.33;;;;;5.37;69.34;102334.53;5135443;27;45505;-77
2022/01/16 09:50:04;;;;;;;;;34.33;26.00;;;;;6.08;66.14;102232.81;5135187;27;45513;-77
2022/01/16 09:52:34;;;;;;;;;48.67;43.33;;;;;5.98;65.09;102270.69;5129490;27;45380;-77
2022/01/16 09:54:59;;;;;;;;;44.67;39.33;;;;;5.91;65.17;102280.78;5118099;27;46417;-76
2022/01/16 09:57:25;;;;;;;;;42.67;36.67;;;;;5.70;66.09;102319.75;5121680;27;45279;-75
2022/01/16 09:59:50;;;;;;;;;41.00;35.00;;;;;5.47;66.59;102318.53;5127822;27;45480;-77
2022/01/16 10:02:16;;;;;;;;;42.33;35.67;;;;;4.85;67.14;102269.03;5130970;27;45274;-77
2022/01/16 10:04:43;;;;;;;;;22.00;21.00;;;;;6.42;63.77;102292.03;5141745;27;46244;-78
2022/01/16 10:07:11;;;;;;;;;35.33;24.33;;;;;9.40;58.37;102300.63;5142147;27;45431;-78
2022/01/16 10:09:39;;;;;;;;;40.00;30.00;;;;;11.51;51.94;102268.00;5123036;27;45541;-75
2022/01/16 10:12:14;;;;;;;;;40.25;32.50;;;;;13.43;46.76;102287.75;5136234;27;45207;-76
2022/01/16 10:14:47;;;;;;;;;32.50;27.00;;;;;14.77;44.63;102271.59;5106887;27;47082;-77
2022/01/16 10:17:21;;;;;;;;;39.50;29.00;;;;;12.55;45.66;102303.34;5122495;27;45219;-77
2022/01/16 10:20:10;;;;;;;;;35.75;30.00;;;;;10.70;49.16;102289.31;5123741;27;45489;-74
2022/01/16 10:22:49;;;;;;;;;34.25;26.50;;;;;9.25;52.26;102244.81;5126977;27;46575;-79
2022/01/16 10:25:17;;;;;;;;;30.00;24.50;;;;;8.08;54.84;102207.81;5125074;27;46264;-75
2022/01/16 10:27:45;;;;;;;;;7.75;2.25;;;;;8.09;55.61;102311.06;5134696;27;45494;-77
2022/01/16 10:30:15;;;;;;;;;22.50;21.25;;;;;7.86;56.89;102317.97;5139296;27;45416;-76
2022/01/16 10:32:43;;;;;;;;;24.50;23.75;;;;;7.25;57.42;102231.34;5127303;27;45549;-78
2022/01/16 10:35:12;;;;;;;;;25.75;22.25;;;;;7.87;58.61;102328.53;5123417;27;45520;-77
2022/01/16 10:37:41;;;;;;;;;23.75;20.75;;;;;7.92;57.60;102285.03;5126703;27;45484;-77
2022/01/16 10:40:19;;;;;;;;;29.50;25.00;;;;;8.00;56.90;102249.53;5123272;27;46946;-76
2022/01/16 10:42:53;;;;;;;;;28.25;23.50;;;;;9.49;53.30;102243.06;5128291;27;45851;-77
2022/01/16 10:45:24;;;;;;;;;24.75;22.50;;;;;12.52;48.12;102314.75;5122925;27;45578;-78
2022/01/16 10:47:54;;;;;;;;;23.75;21.25;;;;;14.42;44.08;102324.03;5106251;27;45960;-76
2022/01/16 10:50:22;;;;;;;;;24.50;23.25;;;;;13.92;41.79;102278.97;5125631;27;45498;-77
2022/01/16 10:53:00;;;;;;;;;25.25;22.25;;;;;15.14;40.42;102293.34;5125405;27;45438;-78
2022/01/16 10:55:36;;;;;;;;;29.25;25.50;;;;;15.43;37.60;102232.63;5120244;27;46583;-76
2022/01/16 10:58:24;;;;;;;;;24.00;22.75;;;;;16.03;38.38;102325.44;5128434;27;45756;-79
2022/01/16 11:00:56;;;;;;;;;26.50;23.50;;;;;16.47;37.14;102383.47;5139521;27;45619;-80
2022/01/16 11:03:23;;;;;;;;;25.25;22.00;;;;;16.19;37.13;102315.81;5139436;27;45332;-79
2022/01/16 11:05:50;;;;;;;;;24.75;22.75;;;;;16.33;36.46;102268.97;5139349;27;46381;-82
2022/01/16 11:08:21;;;;;;;;;29.25;26.50;;;;;16.52;35.49;102329.44;5139455;27;45497;-80
2022/01/16 11:10:56;;;;;;;;;21.50;19.75;;;;;16.46;37.10;102315.19;5124299;27;45527;-86
2022/01/16 11:13:24;;;;;;;;;21.75;18.75;;;;;15.15;38.29;102280.06;5131872;27;45486;-80
2022/01/16 11:15:52;;;;;;;;;25.50;23.25;;;;;13.29;42.01;102311.25;5119948;27;46016;-82
2022/01/16 11:18:20;;;;;;;;;25.75;24.00;;;;;11.15;45.83;102216.00;5125892;27;45327;-79
2022/01/16 11:23:32;;;;;;;;;22.75;19.50;;;;;9.18;51.07;102261.19;5122986;27;45527;-79
2022/01/16 11:26:04;;;;;;;;;25.50;23.00;;;;;8.65;53.09;102313.47;5137059;27;45380;-77
2022/01/16 11:28:30;;;;;;;;;31.50;28.50;;;;;8.56;54.24;102314.00;5103664;27;45424;-79
2022/01/16 11:31:02;;;;;;;;;24.25;21.75;;;;;8.21;54.54;102272.25;5122090;27;45556;-81
2022/01/16 11:33:30;;;;;;;;;22.75;20.25;;;;;8.01;55.54;102226.78;5129184;27;45448;-86
2022/01/16 11:36:03;;;;;;;;;20.25;20.25;;;;;8.32;54.85;102280.56;5138162;27;45493;-81
2022/01/16 11:38:40;;;;;;;;;28.00;28.00;;;;;8.02;56.22;102286.31;5123492;27;45523;-78
2022/01/16 11:41:20;;;;;;;;;27.00;27.00;;;;;7.56;58.01;102313.16;5126067;27;45424;-80
2022/01/16 11:43:56;;;;;;;;;28.50;27.50;;;;;6.60;58.86;102235.31;5128548;27;45308;-83
2022/01/16 11:46:29;;;;;;;;;29.00;25.75;;;;;6.73;60.02;102311.03;5135460;27;46365;-81
2022/01/16 11:49:01;;;;;;;;;32.75;25.25;;;;;6.56;61.95;102318.06;5132877;27;45534;-80
2022/01/16 11:51:36;;;;;;;;;25.75;23.00;;;;;6.40;62.29;102314.63;5113557;27;45447;-79
2022/01/16 11:54:01;;;;;;;;;27.50;23.00;;;;;6.32;62.15;102327.31;5132381;27;45385;-78
2022/01/16 11:56:42;;;;;;;;;23.50;22.00;;;;;6.12;62.01;102297.53;5127172;27;45484;-81
2022/01/16 11:59:11;;;;;;;;;30.75;27.50;;;;;6.09;64.00;102314.81;5125636;27;45366;-79
2022/01/16 12:01:44;;;;;;;;;23.50;23.00;;;;;6.06;64.10;102306.81;5108546;27;45401;-81
2022/01/16 12:04:28;;;;;;;;;25.25;17.75;;;;;6.11;64.08;102303.59;5131196;27;45569;-78